Time,TemperatureF,DewpointF,PressureIn,WindDirection,WindDirectionDegrees,WindSpeedMPH,WindSpeedGustMPH,Humidity,HourlyPrecipIn,Conditions,Clouds,dailyrainin,SoftwareType,DateUTC
2013-09-20 04:55:00,67.0,66.1,29.91,SSE,160,1.0,1.0,97,0.00,,,0.12,Wunderground v.1.15,2013-09-20 09:55:00,
2013-09-20 05:05:00,67.0,66.1,29.92,SW,222,1.0,1.0,97,0.00,,,0.12,Wunderground v.1.15,2013-09-20 10:05:00,
2013-09-20 05:10:00,67.0,66.1,29.92,SW,222,1.0,1.0,97,0.00,,,0.12,Wunderground v.1.15,2013-09-20 10:10:00,
2013-09-20 05:15:00,67.0,66.1,29.92,SW,225,2.0,2.0,97,0.00,,,0.12,Wunderground v.1.15,2013-09-20 10:15:00,
2013-09-20 05:20:00,67.0,66.1,29.92,South,174,2.0,2.0,97,0.00,,,0.12,Wunderground v.1.15,2013-09-20 10:20:00,
2013-09-20 05:25:00,67.1,66.2,29.92,WSW,256,2.0,2.0,97,0.00,,,0.12,Wunderground v.1.15,2013-09-20 10:25:00,
2013-09-20 05:30:00,67.1,66.2,29.93,SSW,200,2.0,2.0,97,0.00,,,0.12,Wunderground v.1.15,2013-09-20 10:30:00,
2013-09-20 05:40:00,67.2,66.3,29.93,West,260,2.0,4.0,97,0.00,,,0.12,Wunderground v.1.15,2013-09-20 10:40:00,
2013-09-20 05:45:00,67.2,66.3,29.93,SW,218,2.0,4.0,97,0.00,,,0.12,Wunderground v.1.15,2013-09-20 10:45:00,
2013-09-20 05:55:00,67.2,66.3,29.93,SW,222,2.0,2.0,97,0.00,,,0.12,Wunderground v.1.15,2013-09-20 10:55:00,
2013-09-20 06:00:00,67.2,66.3,29.93,SW,235,2.0,2.0,97,0.00,,,0.12,Wunderground v.1.15,2013-09-20 11:00:00,
2013-09-20 06:10:00,67.3,66.4,29.93,SW,235,1.0,2.0,97,0.00,,,0.12,Wunderground v.1.15,2013-09-20 11:10:00,
2013-09-20 06:15:00,67.2,66.3,29.93,SW,216,1.0,2.0,97,0.00,,,0.12,Wunderground v.1.15,2013-09-20 11:15:00,
2013-09-20 06:20:00,67.2,66.3,29.92,SW,234,2.0,2.0,97,0.00,,,0.12,Wunderground v.1.15,2013-09-20 11:20:00,
2013-09-20 06:25:00,67.2,66.3,29.92,SW,232,1.0,2.0,97,0.00,,,0.12,Wunderground v.1.15,2013-09-20 11:25:00,
2013-09-20 06:35:00,67.2,66.3,29.92,SW,217,1.0,1.0,97,0.00,,,0.12,Wunderground v.1.15,2013-09-20 11:35:00,
2013-09-20 06:40:00,67.2,66.3,29.91,South,188,1.0,1.0,97,0.00,,,0.12,Wunderground v.1.15,2013-09-20 11:40:00,
2013-09-20 06:45:00,67.2,66.3,29.92,WSW,248,1.0,6.0,97,0.00,,,0.12,Wunderground v.1.15,2013-09-20 11:45:00,
2013-09-20 06:50:00,67.2,66.3,29.92,SW,222,1.0,1.0,97,0.00,,,0.12,Wunderground v.1.15,2013-09-20 11:50:00,
2013-09-20 06:55:00,67.2,66.3,29.92,WSW,250,2.0,2.0,97,0.00,,,0.12,Wunderground v.1.15,2013-09-20 11:55:00,
2013-09-20 07:00:00,67.2,66.3,29.92,SW,229,1.0,1.0,97,0.00,,,0.12,Wunderground v.1.15,2013-09-20 12:00:00,
2013-09-20 07:10:00,67.2,66.3,29.92,South,177,1.0,1.0,97,0.00,,,0.12,Wunderground v.1.15,2013-09-20 12:10:00,
2013-09-20 07:15:00,67.2,66.3,29.92,WSW,240,0.0,1.0,97,0.00,,,0.12,Wunderground v.1.15,2013-09-20 12:15:00,
2013-09-20 07:20:00,67.3,66.4,29.92,SSW,210,0.0,0.0,97,0.00,,,0.12,Wunderground v.1.15,2013-09-20 12:20:00,
2013-09-20 07:25:00,67.3,66.4,29.92,SSW,193,1.0,1.0,97,0.00,,,0.12,Wunderground v.1.15,2013-09-20 12:25:00,
2013-09-20 07:30:00,67.3,66.4,29.92,SW,218,1.0,1.0,97,0.00,,,0.12,Wunderground v.1.15,2013-09-20 12:30:00,
2013-09-20 07:40:00,67.4,66.5,29.93,SW,219,1.0,3.0,97,0.00,,,0.12,Wunderground v.1.15,2013-09-20 12:40:00,
2013-09-20 07:45:00,67.5,66.6,29.93,WSW,242,2.0,3.0,97,0.00,,,0.12,Wunderground v.1.15,2013-09-20 12:45:00,
2013-09-20 07:50:00,67.5,66.6,29.93,SW,226,3.0,3.0,97,0.00,,,0.12,Wunderground v.1.15,2013-09-20 12:50:00,
2013-09-20 07:55:00,67.5,66.6,29.93,SW,235,3.0,3.0,97,0.00,,,0.12,Wunderground v.1.15,2013-09-20 12:55:00,
2013-09-20 08:00:00,67.5,66.6,29.93,SW,235,2.0,2.0,97,0.00,,,0.12,Wunderground v.1.15,2013-09-20 13:00:00,
2013-09-20 08:10:00,67.5,66.6,29.94,West,271,2.0,2.0,97,0.00,,,0.12,Wunderground v.1.15,2013-09-20 13:10:00,
2013-09-20 08:15:00,67.5,66.6,29.94,WSW,242,1.0,2.0,97,0.00,,,0.12,Wunderground v.1.15,2013-09-20 13:15:00,
2013-09-20 08:20:00,67.6,66.7,29.94,SW,222,1.0,1.0,97,0.00,,,0.12,Wunderground v.1.15,2013-09-20 13:20:00,
2013-09-20 08:25:00,67.6,66.7,29.94,SW,225,1.0,1.0,97,0.00,,,0.12,Wunderground v.1.15,2013-09-20 13:25:00,
2013-09-20 08:30:00,67.7,66.8,29.94,South,172,1.0,1.0,97,0.00,,,0.12,Wunderground v.1.15,2013-09-20 13:30:00,
2013-09-20 08:40:00,68.0,67.1,29.94,WSW,256,2.0,2.0,97,0.00,,,0.12,Wunderground v.1.15,2013-09-20 13:40:00,
2013-09-20 08:45:00,68.1,67.2,29.94,SW,225,1.0,2.0,97,0.00,,,0.12,Wunderground v.1.15,2013-09-20 13:45:00,
2013-09-20 08:50:00,68.1,66.9,29.94,WSW,256,1.0,2.0,96,0.00,,,0.12,Wunderground v.1.15,2013-09-20 13:50:00,
2013-09-20 08:55:00,68.1,66.9,29.94,West,264,2.0,2.0,96,0.00,,,0.12,Wunderground v.1.15,2013-09-20 13:55:00,
2013-09-20 09:00:00,68.1,66.9,29.94,SW,226,2.0,2.0,96,0.00,,,0.12,Wunderground v.1.15,2013-09-20 14:00:00,
2013-09-20 09:10:00,68.1,66.9,29.94,WSW,250,1.0,1.0,96,0.00,,,0.12,Wunderground v.1.15,2013-09-20 14:10:00,
2013-09-20 09:15:00,68.2,67.0,29.94,West,270,1.0,1.0,96,0.00,,,0.12,Wunderground v.1.15,2013-09-20 14:15:00,
2013-09-20 09:20:00,68.3,66.8,29.94,NW,313,1.0,1.0,95,0.00,,,0.12,Wunderground v.1.15,2013-09-20 14:20:00,
2013-09-20 09:25:00,68.3,66.8,29.94,North,4,1.0,1.0,95,0.00,,,0.12,Wunderground v.1.15,2013-09-20 14:25:00,
2013-09-20 09:35:00,68.5,66.7,29.94,West,267,1.0,3.0,94,0.00,,,0.12,Wunderground v.1.15,2013-09-20 14:35:00,
2013-09-20 09:45:00,68.8,66.7,29.94,WSW,248,1.0,1.0,93,0.00,,,0.12,Wunderground v.1.15,2013-09-20 14:45:00,
2013-09-20 09:50:00,69.0,66.9,29.94,SW,228,1.0,2.0,93,0.00,,,0.12,Wunderground v.1.15,2013-09-20 14:50:00,
2013-09-20 09:55:00,69.2,66.8,29.95,WSW,243,1.0,2.0,92,0.00,,,0.12,Wunderground v.1.15,2013-09-20 14:55:00,
2013-09-20 10:00:00,69.2,66.5,29.95,SW,235,1.0,2.0,91,0.00,,,0.12,Wunderground v.1.15,2013-09-20 15:00:00,
2013-09-20 10:10:00,69.4,66.0,29.95,NW,308,2.0,2.0,89,0.00,,,0.12,Wunderground v.1.15,2013-09-20 15:10:00,
2013-09-20 10:15:00,69.4,65.7,29.95,WSW,243,2.0,2.0,88,0.00,,,0.12,Wunderground v.1.15,2013-09-20 15:15:00,
2013-09-20 10:25:00,69.2,65.5,29.95,SSW,210,2.0,4.0,88,0.00,,,0.12,Wunderground v.1.15,2013-09-20 15:25:00,
2013-09-20 10:30:00,69.1,65.1,29.95,West,270,2.0,6.0,87,0.00,,,0.12,Wunderground v.1.15,2013-09-20 15:30:00,
2013-09-20 10:35:00,69.0,64.6,29.95,SW,225,2.0,6.0,86,0.00,,,0.12,Wunderground v.1.15,2013-09-20 15:35:00,
2013-09-20 10:45:00,69.0,64.6,29.95,West,278,1.0,2.0,86,0.00,,,0.12,Wunderground v.1.15,2013-09-20 15:45:00,
2013-09-20 10:50:00,68.8,64.4,29.95,NW,311,1.0,3.0,86,0.00,,,0.12,Wunderground v.1.15,2013-09-20 15:50:00,
2013-09-20 11:00:00,68.4,63.7,29.95,NW,315,2.0,7.0,85,0.00,,,0.12,Wunderground v.1.15,2013-09-20 16:00:00,
2013-09-20 11:10:00,68.1,62.7,29.96,WSW,258,2.0,3.0,83,0.00,,,0.12,Wunderground v.1.15,2013-09-20 16:10:00,
2013-09-20 11:20:00,67.8,62.1,29.96,NW,312,2.0,2.0,82,0.00,,,0.12,Wunderground v.1.15,2013-09-20 16:20:00,
2013-09-20 11:25:00,67.8,61.8,29.96,WNW,296,2.0,4.0,81,0.00,,,0.12,Wunderground v.1.15,2013-09-20 16:25:00,
2013-09-20 11:40:00,67.9,62.5,29.96,SW,224,2.0,2.0,83,0.00,,,0.12,Wunderground v.1.15,2013-09-20 16:40:00,
2013-09-20 11:50:00,67.8,61.4,29.96,WSW,251,2.0,3.0,80,0.00,,,0.12,Wunderground v.1.15,2013-09-20 16:50:00,
2013-09-20 11:55:00,67.7,61.0,29.95,NNW,333,3.0,3.0,79,0.00,,,0.12,Wunderground v.1.15,2013-09-20 16:55:00,
2013-09-20 12:00:00,67.9,61.1,29.95,WNW,293,2.0,5.0,79,0.00,,,0.12,Wunderground v.1.15,2013-09-20 17:00:00,
2013-09-20 12:10:00,67.8,61.4,29.96,WSW,245,2.0,2.0,80,0.00,,,0.12,Wunderground v.1.15,2013-09-20 17:10:00,
2013-09-20 12:15:00,67.9,60.8,29.96,WNW,300,2.0,2.0,78,0.00,,,0.12,Wunderground v.1.15,2013-09-20 17:15:00,
2013-09-20 12:20:00,67.9,61.9,29.96,WSW,240,2.0,2.0,81,0.00,,,0.12,Wunderground v.1.15,2013-09-20 17:20:00,
2013-09-20 12:25:00,68.3,61.2,29.96,West,268,2.0,2.0,78,0.00,,,0.12,Wunderground v.1.15,2013-09-20 17:25:00,
2013-09-20 12:30:00,68.3,60.1,29.96,NW,305,2.0,2.0,75,0.00,,,0.12,Wunderground v.1.15,2013-09-20 17:30:00,
2013-09-20 12:40:00,68.6,60.7,29.95,West,267,2.0,2.0,76,0.00,,,0.12,Wunderground v.1.15,2013-09-20 17:40:00,
2013-09-20 12:45:00,68.9,61.4,29.95,WSW,256,1.0,2.0,77,0.00,,,0.12,Wunderground v.1.15,2013-09-20 17:45:00,
2013-09-20 12:55:00,68.8,60.2,29.95,WSW,243,3.0,5.0,74,0.00,,,0.12,Wunderground v.1.15,2013-09-20 17:55:00,
2013-09-20 13:00:00,68.9,60.3,29.95,North,349,2.0,5.0,74,0.00,,,0.12,Wunderground v.1.15,2013-09-20 18:00:00,
2013-09-20 13:10:00,68.8,59.8,29.95,WSW,247,2.0,2.0,73,0.00,,,0.12,Wunderground v.1.15,2013-09-20 18:10:00,
2013-09-20 13:15:00,68.9,59.9,29.95,West,261,2.0,2.0,73,0.00,,,0.12,Wunderground v.1.15,2013-09-20 18:15:00,
2013-09-20 13:25:00,69.1,59.7,29.94,WSW,255,2.0,2.0,72,0.00,,,0.12,Wunderground v.1.15,2013-09-20 18:25:00,
2013-09-20 13:35:00,69.3,60.3,29.94,WSW,238,2.0,4.0,73,0.00,,,0.12,Wunderground v.1.15,2013-09-20 18:35:00,
2013-09-20 13:40:00,69.3,59.9,29.94,WNW,290,3.0,3.0,72,0.00,,,0.12,Wunderground v.1.15,2013-09-20 18:40:00,
2013-09-20 13:45:00,69.6,60.2,29.94,SW,235,2.0,8.0,72,0.00,,,0.12,Wunderground v.1.15,2013-09-20 18:45:00,
2013-09-20 13:55:00,69.7,58.7,29.94,West,276,3.0,3.0,68,0.00,,,0.12,Wunderground v.1.15,2013-09-20 18:55:00,
2013-09-20 14:00:00,69.7,59.1,29.93,WSW,237,2.0,4.0,69,0.00,,,0.12,Wunderground v.1.15,2013-09-20 19:00:00,
2013-09-20 14:10:00,69.9,59.3,29.94,WNW,302,2.0,4.0,69,0.00,,,0.12,Wunderground v.1.15,2013-09-20 19:10:00,
2013-09-20 14:15:00,70.0,58.5,29.94,South,191,3.0,8.0,67,0.00,,,0.12,Wunderground v.1.15,2013-09-20 19:15:00,
2013-09-20 14:20:00,69.7,57.0,29.94,West,275,4.0,4.0,64,0.00,,,0.12,Wunderground v.1.15,2013-09-20 19:20:00,
2013-09-20 14:30:00,69.8,57.9,29.94,West,269,2.0,4.0,66,0.00,,,0.12,Wunderground v.1.15,2013-09-20 19:30:00,
2013-09-20 14:35:00,69.7,57.4,29.93,WSW,242,3.0,4.0,65,0.00,,,0.12,Wunderground v.1.15,2013-09-20 19:35:00,
2013-09-20 14:40:00,69.7,57.8,29.93,SSE,153,3.0,3.0,66,0.00,,,0.12,Wunderground v.1.15,2013-09-20 19:40:00,
2013-09-20 14:45:00,70.0,58.1,29.93,WSW,258,2.0,3.0,66,0.00,,,0.12,Wunderground v.1.15,2013-09-20 19:45:00,
2013-09-20 14:50:00,70.4,58.1,29.93,WSW,242,2.0,5.0,65,0.00,,,0.12,Wunderground v.1.15,2013-09-20 19:50:00,
2013-09-20 14:55:00,70.1,56.9,29.93,SE,132,2.0,5.0,63,0.00,,,0.12,Wunderground v.1.15,2013-09-20 19:55:00,
2013-09-20 15:00:00,70.2,56.6,29.93,WSW,251,3.0,3.0,62,0.00,,,0.12,Wunderground v.1.15,2013-09-20 20:00:00,
2013-09-20 15:10:00,69.5,56.8,29.93,WNW,283,3.0,3.0,64,0.00,,,0.12,Wunderground v.1.15,2013-09-20 20:10:00,
2013-09-20 15:15:00,69.4,55.8,29.93,SW,229,3.0,3.0,62,0.00,,,0.12,Wunderground v.1.15,2013-09-20 20:15:00,
2013-09-20 15:20:00,69.3,55.7,29.93,SW,222,3.0,3.0,62,0.00,,,0.12,Wunderground v.1.15,2013-09-20 20:20:00,
2013-09-20 15:30:00,69.1,55.1,29.93,SSE,150,3.0,3.0,61,0.00,,,0.12,Wunderground v.1.15,2013-09-20 20:30:00,
2013-09-20 15:35:00,69.3,55.7,29.93,WNW,287,2.0,3.0,62,0.00,,,0.12,Wunderground v.1.15,2013-09-20 20:35:00,
2013-09-20 15:40:00,69.5,55.9,29.93,SW,217,2.0,4.0,62,0.00,,,0.12,Wunderground v.1.15,2013-09-20 20:40:00,
2013-09-20 15:45:00,69.6,54.6,29.93,West,264,3.0,4.0,59,0.00,,,0.12,Wunderground v.1.15,2013-09-20 20:45:00,
2013-09-20 15:50:00,69.5,55.0,29.93,WNW,291,4.0,4.0,60,0.00,,,0.12,Wunderground v.1.15,2013-09-20 20:50:00,
2013-09-20 15:55:00,69.8,56.2,29.93,WNW,302,3.0,5.0,62,0.00,,,0.12,Wunderground v.1.15,2013-09-20 20:55:00,
2013-09-20 16:00:00,70.4,55.8,29.93,West,271,3.0,3.0,60,0.00,,,0.12,Wunderground v.1.15,2013-09-20 21:00:00,
2013-09-20 16:10:00,70.8,55.3,29.92,WNW,296,3.0,10.0,58,0.00,,,0.12,Wunderground v.1.15,2013-09-20 21:10:00,
2013-09-20 16:15:00,71.1,55.1,29.92,WNW,287,4.0,10.0,57,0.00,,,0.12,Wunderground v.1.15,2013-09-20 21:15:00,
2013-09-20 16:25:00,71.5,55.5,29.92,West,281,3.0,3.0,57,0.00,,,0.12,Wunderground v.1.15,2013-09-20 21:25:00,
2013-09-20 16:35:00,71.6,52.5,29.93,WSW,239,3.0,5.0,51,0.00,,,0.12,Wunderground v.1.15,2013-09-20 21:35:00,
2013-09-20 16:40:00,71.0,52.0,29.92,WNW,291,4.0,4.0,51,0.00,,,0.12,Wunderground v.1.15,2013-09-20 21:40:00,
2013-09-20 16:45:00,71.0,53.5,29.92,SSE,159,3.0,4.0,54,0.00,,,0.12,Wunderground v.1.15,2013-09-20 21:45:00,
2013-09-20 16:50:00,71.4,53.4,29.92,WSW,242,2.0,3.0,53,0.00,,,0.12,Wunderground v.1.15,2013-09-20 21:50:00,
2013-09-20 16:55:00,71.6,53.0,29.93,SW,222,2.0,3.0,52,0.00,,,0.12,Wunderground v.1.15,2013-09-20 21:55:00,
2013-09-20 17:00:00,71.1,53.1,29.93,SW,218,3.0,3.0,53,0.00,,,0.12,Wunderground v.1.15,2013-09-20 22:00:00,
2013-09-20 17:10:00,70.7,52.7,29.93,SW,233,3.0,6.0,53,0.00,,,0.12,Wunderground v.1.15,2013-09-20 22:10:00,
2013-09-20 17:15:00,70.2,52.3,29.93,NW,324,3.0,6.0,53,0.00,,,0.12,Wunderground v.1.15,2013-09-20 22:15:00,
2013-09-20 17:20:00,69.9,52.0,29.94,East,91,4.0,4.0,53,0.00,,,0.12,Wunderground v.1.15,2013-09-20 22:20:00,
2013-09-20 17:25:00,69.4,52.0,29.94,NNW,333,4.0,5.0,54,0.00,,,0.12,Wunderground v.1.15,2013-09-20 22:25:00,
2013-09-20 17:30:00,68.9,51.6,29.94,NW,322,4.0,6.0,54,0.00,,,0.12,Wunderground v.1.15,2013-09-20 22:30:00,
2013-09-20 17:40:00,67.9,51.1,29.94,NW,319,3.0,4.0,55,0.00,,,0.12,Wunderground v.1.15,2013-09-20 22:40:00,
2013-09-20 17:45:00,67.6,51.3,29.94,NW,316,4.0,4.0,56,0.00,,,0.12,Wunderground v.1.15,2013-09-20 22:45:00,
2013-09-20 17:50:00,67.3,51.1,29.94,West,281,4.0,4.0,56,0.00,,,0.12,Wunderground v.1.15,2013-09-20 22:50:00,
2013-09-20 17:55:00,67.1,52.3,29.94,SSW,207,3.0,4.0,59,0.00,,,0.12,Wunderground v.1.15,2013-09-20 22:55:00,
2013-09-20 18:00:00,66.7,51.9,29.94,NNW,346,2.0,2.0,59,0.00,,,0.12,Wunderground v.1.15,2013-09-20 23:00:00,
2013-09-20 18:10:00,66.0,51.3,29.95,SW,232,2.0,2.0,59,0.00,,,0.12,Wunderground v.1.15,2013-09-20 23:10:00,
2013-09-20 18:15:00,65.8,51.5,29.94,SSW,195,2.0,2.0,60,0.00,,,0.12,Wunderground v.1.15,2013-09-20 23:15:00,
2013-09-20 18:20:00,65.6,51.3,29.95,WSW,239,2.0,2.0,60,0.00,,,0.12,Wunderground v.1.15,2013-09-20 23:20:00,
2013-09-20 18:25:00,65.4,51.1,29.95,West,274,1.0,5.0,60,0.00,,,0.12,Wunderground v.1.15,2013-09-20 23:25:00,
2013-09-20 18:30:00,65.2,51.4,29.95,NE,49,2.0,3.0,61,0.00,,,0.12,Wunderground v.1.15,2013-09-20 23:30:00,
2013-09-20 18:40:00,64.6,51.7,29.95,West,280,1.0,1.0,63,0.00,,,0.12,Wunderground v.1.15,2013-09-20 23:40:00,
2013-09-20 18:45:00,64.3,51.9,29.95,NW,323,1.0,1.0,64,0.00,,,0.12,Wunderground v.1.15,2013-09-20 23:45:00,
2013-09-20 18:55:00,63.5,52.7,29.95,WSW,238,0.0,1.0,68,0.00,,,0.12,Wunderground v.1.15,2013-09-20 23:55:00,
2013-09-20 19:05:00,62.9,52.6,29.95,SW,229,1.0,1.0,69,0.00,,,0.12,Wunderground v.1.15,2013-09-21 00:05:00,
2013-09-20 19:10:00,62.6,52.3,29.95,SW,231,1.0,1.0,69,0.00,,,0.12,Wunderground v.1.15,2013-09-21 00:10:00,
2013-09-20 19:15:00,62.4,52.9,29.95,WSW,256,1.0,1.0,71,0.00,,,0.12,Wunderground v.1.15,2013-09-21 00:15:00,
2013-09-20 19:25:00,62.0,52.5,29.95,WSW,256,0.0,0.0,71,0.00,,,0.12,Wunderground v.1.15,2013-09-21 00:25:00,
2013-09-20 19:30:00,61.7,52.6,29.95,NNE,29,0.0,0.0,72,0.00,,,0.12,Wunderground v.1.15,2013-09-21 00:30:00,
2013-09-20 19:35:00,61.4,52.7,29.95,WSW,250,0.0,0.0,73,0.00,,,0.12,Wunderground v.1.15,2013-09-21 00:35:00,
2013-09-20 19:45:00,61.1,53.1,29.96,West,280,1.0,1.0,75,0.00,,,0.12,Wunderground v.1.15,2013-09-21 00:45:00,
2013-09-20 19:50:00,60.9,52.9,29.96,West,260,1.0,1.0,75,0.00,,,0.12,Wunderground v.1.15,2013-09-21 00:50:00,
2013-09-20 19:55:00,60.7,52.7,29.96,WSW,242,1.0,1.0,75,0.00,,,0.12,Wunderground v.1.15,2013-09-21 00:55:00,
2013-09-20 20:00:00,60.6,53.0,29.96,WNW,299,1.0,1.0,76,0.00,,,0.12,Wunderground v.1.15,2013-09-21 01:00:00,
2013-09-20 20:10:00,60.3,53.1,29.97,NW,319,1.0,1.0,77,0.00,,,0.12,Wunderground v.1.15,2013-09-21 01:10:00,
2013-09-20 20:15:00,60.2,53.0,29.97,WNW,287,1.0,1.0,77,0.00,,,0.12,Wunderground v.1.15,2013-09-21 01:15:00,
2013-09-20 20:20:00,59.9,53.0,29.97,West,260,0.0,0.0,78,0.00,,,0.12,Wunderground v.1.15,2013-09-21 01:20:00,
2013-09-20 20:25:00,59.7,53.2,29.97,WSW,238,0.0,1.0,79,0.00,,,0.12,Wunderground v.1.15,2013-09-21 01:25:00,
2013-09-20 20:30:00,59.4,53.2,29.97,NNW,333,0.0,2.0,80,0.00,,,0.12,Wunderground v.1.15,2013-09-21 01:30:00,
2013-09-20 20:40:00,58.9,53.1,29.97,SW,235,0.0,0.0,81,0.00,,,0.12,Wunderground v.1.15,2013-09-21 01:40:00,
2013-09-20 20:50:00,58.6,52.8,29.97,WNW,291,1.0,1.0,81,0.00,,,0.12,Wunderground v.1.15,2013-09-21 01:50:00,
2013-09-20 20:55:00,58.6,53.1,29.97,WSW,240,1.0,1.0,82,0.00,,,0.12,Wunderground v.1.15,2013-09-21 01:55:00,
2013-09-20 21:00:00,58.5,53.4,29.96,WSW,238,1.0,1.0,83,0.00,,,0.12,Wunderground v.1.15,2013-09-21 02:00:00,